Time;durP1;ratioP1;P1;durP2;ratioP2;P2;SDS_P1;SDS_P2;PMS_P1;PMS_P2;Temp;Humidity;BMP_temperature;BMP_pressure;BME280_temperature;BME280_humidity;BME280_pressure;Samples;Min_cycle;Max_cycle;Signal;HPM_P1;HPM_P2
2023/03/11 00:00:39;;;;;;;15.48;2.53;;;14.90;98.40;;;;;;5004231;28;20481;-69
2023/03/11 00:03:07;;;;;;;13.27;2.33;;;14.90;98.40;;;;;;5022057;28;20770;-69
2023/03/11 00:05:41;;;;;;;12.00;2.13;;;14.90;98.40;;;;;;5019188;28;20616;-69
2023/03/11 00:08:13;;;;;;;11.07;2.40;;;14.90;98.80;;;;;;5001554;28;20409;-70
2023/03/11 00:10:43;;;;;;;9.88;2.35;;;14.90;98.90;;;;;;5018405;28;20472;-69
2023/03/11 00:13:12;;;;;;;10.18;2.40;;;14.90;98.70;;;;;;5022611;28;20948;-69
2023/03/11 00:15:40;;;;;;;12.40;2.47;;;14.90;98.70;;;;;;5003381;28;20526;-69
2023/03/11 00:18:07;;;;;;;12.63;2.50;;;14.90;99.10;;;;;;5019540;28;20442;-69
2023/03/11 00:20:41;;;;;;;16.95;2.20;;;14.90;99.20;;;;;;5004457;28;20414;-70
2023/03/11 00:23:08;;;;;;;9.98;2.30;;;14.90;99.20;;;;;;5001116;28;20477;-70
2023/03/11 00:25:37;;;;;;;10.45;2.35;;;14.80;99.80;;;;;;5020446;28;20950;-69
2023/03/11 00:28:09;;;;;;;13.80;2.47;;;14.80;99.60;;;;;;5017533;28;20419;-69
2023/03/11 00:30:37;;;;;;;8.05;1.90;;;14.80;99.60;;;;;;5015751;28;20476;-69
2023/03/11 00:33:05;;;;;;;13.18;2.30;;;14.70;99.90;;;;;;4999274;28;20426;-69
2023/03/11 00:35:34;;;;;;;12.63;2.00;;;14.60;99.90;;;;;;5018685;28;20442;-69
2023/03/11 00:38:10;;;;;;;10.48;2.20;;;14.50;99.90;;;;;;5000945;28;20407;-69
2023/03/11 00:40:39;;;;;;;11.23;2.20;;;14.30;99.90;;;;;;4999341;28;20411;-69
2023/03/11 00:43:05;;;;;;;10.40;2.17;;;14.10;99.90;;;;;;5020215;28;20792;-69
2023/03/11 00:45:32;;;;;;;9.20;2.20;;;14.00;99.90;;;;;;5019271;28;20419;-69
2023/03/11 00:47:58;;;;;;;14.30;2.17;;;13.90;99.90;;;;;;4985407;28;21258;-69
2023/03/11 00:50:32;;;;;;;10.82;2.40;;;13.70;99.90;;;;;;5016246;28;20509;-69
2023/03/11 00:53:00;;;;;;;8.52;1.92;;;13.70;99.90;;;;;;5018117;28;20426;-69
2023/03/11 00:55:31;;;;;;;13.05;2.25;;;13.60;99.90;;;;;;5018559;28;20426;-70
2023/03/11 00:58:01;;;;;;;10.40;2.20;;;13.60;99.90;;;;;;5016810;28;20414;-70
2023/03/11 01:00:29;;;;;;;20.00;2.67;;;13.70;99.90;;;;;;5019796;28;20476;-70
2023/03/11 01:02:56;;;;;;;14.07;2.15;;;13.70;99.90;;;;;;5019787;28;20418;-70
2023/03/11 01:05:28;;;;;;;11.73;2.20;;;13.70;99.90;;;;;;5016974;28;20411;-71
2023/03/11 01:07:54;;;;;;;7.68;2.00;;;13.70;99.90;;;;;;5017985;28;20480;-70
2023/03/11 01:10:21;;;;;;;9.98;2.08;;;13.70;99.90;;;;;;5001658;28;20423;-70
2023/03/11 01:12:51;;;;;;;10.48;2.17;;;13.70;99.90;;;;;;5017567;28;20516;-71
2023/03/11 01:15:36;;;;;;;11.57;2.17;;;13.80;99.90;;;;;;5016832;28;20414;-70
2023/03/11 01:18:03;;;;;;;8.80;2.08;;;13.80;99.90;;;;;;4999643;28;20423;-71
2023/03/11 01:20:30;;;;;;;12.88;2.15;;;13.90;99.90;;;;;;5002675;28;20418;-70
2023/03/11 01:22:57;;;;;;;10.93;2.00;;;13.90;99.90;;;;;;5002889;28;20739;-71
2023/03/11 01:25:24;;;;;;;9.27;2.30;;;13.90;99.90;;;;;;5000072;28;21001;-70
2023/03/11 01:27:51;;;;;;;7.95;1.90;;;14.00;99.90;;;;;;5018795;28;20457;-70
2023/03/11 01:30:23;;;;;;;12.20;2.28;;;14.20;99.90;;;;;;5000611;28;20585;-70
2023/03/11 01:32:51;;;;;;;13.93;2.47;;;14.20;99.90;;;;;;5016577;28;20483;-71
2023/03/11 01:35:20;;;;;;;15.90;2.70;;;14.20;99.90;;;;;;5019227;28;21244;-71
2023/03/11 01:37:47;;;;;;;13.33;2.17;;;14.20;99.90;;;;;;5018664;28;20415;-70
2023/03/11 01:40:42;;;;;;;11.80;2.40;;;14.30;99.90;;;;;;5017776;28;20970;-71
2023/03/11 01:43:43;;;;;;;9.48;2.40;;;14.30;99.90;;;;;;5016221;28;20684;-71
2023/03/11 01:46:14;;;;;;;8.73;2.20;;;14.30;99.90;;;;;;4998630;28;20864;-71
2023/03/11 01:48:48;;;;;;;12.93;2.40;;;14.30;99.80;;;;;;4999294;28;20415;-71
2023/03/11 01:51:24;;;;;;;8.60;2.08;;;14.30;99.90;;;;;;5016957;28;20850;-71
2023/03/11 01:53:53;;;;;;;8.55;2.10;;;14.30;99.90;;;;;;5016580;28;20432;-70
2023/03/11 01:56:20;;;;;;;11.27;2.63;;;14.40;99.90;;;;;;5016132;28;21688;-70
2023/03/11 01:58:52;;;;;;;8.63;2.00;;;14.30;99.90;;;;;;5011070;28;20455;-70
2023/03/11 02:01:21;;;;;;;10.60;2.35;;;14.40;99.70;;;;;;5003186;28;20521;-71
2023/03/11 02:03:51;;;;;;;11.80;2.10;;;14.40;99.90;;;;;;4981345;28;20965;-70
2023/03/11 02:06:21;;;;;;;11.95;2.40;;;14.40;99.90;;;;;;4999077;28;20427;-70
2023/03/11 02:08:49;;;;;;;13.55;2.40;;;14.40;99.90;;;;;;5016712;28;20766;-70
2023/03/11 02:11:25;;;;;;;9.13;2.00;;;14.30;99.90;;;;;;4998050;28;20747;-70
2023/03/11 02:13:58;;;;;;;10.68;2.22;;;14.30;99.90;;;;;;5016850;28;20422;-70
2023/03/11 02:16:25;;;;;;;9.65;2.30;;;14.30;99.90;;;;;;4998242;28;20419;-70
2023/03/11 02:18:51;;;;;;;13.10;2.20;;;14.30;99.80;;;;;;5015927;28;20422;-70
2023/03/11 02:21:25;;;;;;;9.17;2.10;;;14.40;99.90;;;;;;4999748;28;20445;-70
2023/03/11 02:24:21;;;;;;;10.70;2.17;;;14.30;99.90;;;;;;5001687;28;20465;-70
2023/03/11 02:27:10;;;;;;;9.73;2.20;;;14.30;99.90;;;;;;5000620;28;20763;-71
2023/03/11 02:29:38;;;;;;;11.68;2.33;;;14.20;99.90;;;;;;4998862;28;20440;-70
2023/03/11 02:32:09;;;;;;;10.55;2.40;;;14.20;99.90;;;;;;5018398;28;20461;-71
2023/03/11 02:34:38;;;;;;;14.45;2.53;;;14.10;99.90;;;;;;4998465;28;20518;-71
2023/03/11 02:37:12;;;;;;;9.20;2.40;;;14.00;99.90;;;;;;5017556;28;20500;-70
2023/03/11 02:39:45;;;;;;;9.40;2.33;;;14.00;99.90;;;;;;5018073;28;20446;-70
2023/03/11 02:42:31;;;;;;;12.70;2.38;;;13.90;99.90;;;;;;5016451;28;20426;-70
2023/03/11 02:45:15;;;;;;;11.85;2.30;;;13.90;99.90;;;;;;5016486;28;20415;-70
2023/03/11 02:47:41;;;;;;;7.45;2.13;;;13.80;99.90;;;;;;5014780;28;20866;-70
2023/03/11 02:50:12;;;;;;;12.73;2.30;;;13.70;99.90;;;;;;5000317;28;20458;-70
2023/03/11 02:52:39;;;;;;;12.95;2.50;;;13.60;99.90;;;;;;5000151;28;20821;-70
2023/03/11 02:55:06;;;;;;;9.55;2.50;;;13.70;99.90;;;;;;5018482;28;20415;-70
2023/03/11 02:57:33;;;;;;;10.45;2.33;;;13.70;99.90;;;;;;5019127;28;20782;-71
2023/03/11 03:00:05;;;;;;;11.82;2.00;;;13.70;99.90;;;;;;5018761;28;20415;-71
2023/03/11 03:02:31;;;;;;;11.40;2.25;;;13.60;99.90;;;;;;5018923;28;20446;-71
2023/03/11 03:04:57;;;;;;;9.48;1.90;;;13.60;99.90;;;;;;5016455;28;20414;-72
2023/03/11 03:07:23;;;;;;;10.65;2.17;;;13.50;99.90;;;;;;5019012;28;20423;-72
2023/03/11 03:09:50;;;;;;;10.38;2.05;;;13.50;99.90;;;;;;5023826;28;20430;-71
2023/03/11 03:12:16;;;;;;;8.60;2.03;;;13.40;99.90;;;;;;5022251;28;20770;-71
2023/03/11 03:14:42;;;;;;;12.02;2.25;;;13.30;99.90;;;;;;4992502;28;20410;-71
2023/03/11 03:17:08;;;;;;;9.65;2.15;;;13.20;99.90;;;;;;5021399;28;20526;-71
2023/03/11 03:19:34;;;;;;;7.50;2.00;;;13.10;99.90;;;;;;5021183;28;20434;-71
2023/03/11 03:22:00;;;;;;;7.43;1.90;;;12.90;99.90;;;;;;5006551;28;20669;-71
2023/03/11 03:24:27;;;;;;;7.40;1.70;;;12.90;99.90;;;;;;5021633;28;20426;-71
2023/03/11 03:26:53;;;;;;;10.75;1.90;;;12.90;99.90;;;;;;5006165;28;20445;-71
2023/03/11 03:29:19;;;;;;;9.90;2.17;;;12.80;99.90;;;;;;5021864;28;20498;-71
2023/03/11 03:31:46;;;;;;;6.57;1.73;;;12.60;99.90;;;;;;5005717;28;20735;-71
2023/03/11 03:34:12;;;;;;;10.88;2.13;;;12.50;99.90;;;;;;5022334;28;20406;-71
2023/03/11 03:36:38;;;;;;;10.47;2.20;;;12.40;99.90;;;;;;5005353;28;20410;-71
2023/03/11 03:39:05;;;;;;;9.63;2.00;;;12.30;99.90;;;;;;5020870;28;20846;-71
2023/03/11 03:41:31;;;;;;;6.05;1.88;;;12.20;99.90;;;;;;5004889;28;20499;-71
2023/03/11 03:43:58;;;;;;;8.55;1.95;;;12.10;99.90;;;;;;5022658;28;21229;-71
2023/03/11 03:46:24;;;;;;;9.13;1.98;;;12.20;99.90;;;;;;5003785;28;20415;-71
2023/03/11 03:48:51;;;;;;;10.35;2.17;;;12.10;99.90;;;;;;5005590;28;20445;-72
2023/03/11 03:51:17;;;;;;;7.95;1.80;;;12.10;99.90;;;;;;5002595;28;20450;-71
2023/03/11 03:53:45;;;;;;;10.32;1.90;;;12.10;99.90;;;;;;5005667;28;20422;-71
2023/03/11 03:56:16;;;;;;;9.23;1.98;;;12.10;99.90;;;;;;5004221;28;20415;-71
2023/03/11 03:58:42;;;;;;;13.27;2.08;;;12.00;99.90;;;;;;5003951;28;20818;-71
2023/03/11 04:01:10;;;;;;;13.10;2.20;;;12.00;99.90;;;;;;5005085;28;20414;-71
2023/03/11 04:03:37;;;;;;;8.93;2.00;;;11.90;99.90;;;;;;4988558;28;20482;-71
2023/03/11 04:06:21;;;;;;;7.03;1.85;;;11.90;99.90;;;;;;5019951;28;20423;-71
2023/03/11 04:08:50;;;;;;;9.55;2.00;;;11.80;99.90;;;;;;5021445;28;20415;-72
2023/03/11 04:11:17;;;;;;;8.57;1.63;;;11.70;99.90;;;;;;5022373;28;20411;-71
2023/03/11 04:13:44;;;;;;;10.55;1.92;;;11.80;99.90;;;;;;5005871;28;20430;-71
2023/03/11 04:16:22;;;;;;;9.90;1.92;;;11.80;99.90;;;;;;5020788;28;20415;-71
2023/03/11 04:18:48;;;;;;;6.28;1.67;;;11.80;99.90;;;;;;5017819;28;20426;-71
2023/03/11 04:21:15;;;;;;;7.07;1.85;;;11.90;99.90;;;;;;5002753;28;20450;-71
2023/03/11 04:23:41;;;;;;;9.02;2.03;;;11.90;99.90;;;;;;4987888;28;20422;-71
2023/03/11 04:26:07;;;;;;;9.90;1.95;;;11.90;99.90;;;;;;5022666;28;20410;-71
2023/03/11 04:28:34;;;;;;;6.57;1.92;;;11.90;99.90;;;;;;5021724;28;20427;-71
2023/03/11 04:31:00;;;;;;;6.35;1.75;;;11.80;99.90;;;;;;5021940;28;20511;-71
2023/03/11 04:33:26;;;;;;;10.73;1.95;;;11.80;99.90;;;;;;5022180;28;21192;-71
2023/03/11 04:35:52;;;;;;;10.05;2.15;;;11.80;99.90;;;;;;5021219;28;20461;-71
2023/03/11 04:38:19;;;;;;;7.90;1.70;;;11.90;99.90;;;;;;5019794;28;21007;-72
2023/03/11 04:40:45;;;;;;;6.10;1.65;;;12.00;99.90;;;;;;5021163;28;20542;-71
2023/03/11 04:43:11;;;;;;;9.85;1.83;;;12.10;99.90;;;;;;5021106;28;20429;-71
2023/03/11 04:45:39;;;;;;;6.97;2.10;;;12.20;99.90;;;;;;5022375;28;20447;-71
2023/03/11 04:48:05;;;;;;;8.60;1.70;;;12.40;99.90;;;;;;5022347;28;20444;-72
2023/03/11 04:50:34;;;;;;;8.25;1.80;;;12.70;99.90;;;;;;4987314;28;20528;-71
2023/03/11 04:53:03;;;;;;;9.02;1.90;;;12.80;99.90;;;;;;5020696;28;20415;-71
2023/03/11 04:55:30;;;;;;;9.00;1.77;;;12.90;99.90;;;;;;5005353;28;20407;-71
2023/03/11 04:57:56;;;;;;;7.82;1.83;;;13.00;99.90;;;;;;4986454;28;20510;-71
2023/03/11 05:00:23;;;;;;;12.73;1.92;;;13.10;99.90;;;;;;5021759;28;20927;-71
2023/03/11 05:02:50;;;;;;;8.05;1.70;;;13.10;99.90;;;;;;5003649;28;20446;-72
2023/03/11 05:05:20;;;;;;;9.43;1.58;;;13.20;99.90;;;;;;5004491;28;20433;-71
2023/03/11 05:07:47;;;;;;;6.03;1.80;;;13.20;99.90;;;;;;5002423;28;20421;-71
2023/03/11 05:10:21;;;;;;;8.77;2.05;;;13.20;99.90;;;;;;5020266;28;20415;-71
2023/03/11 05:12:49;;;;;;;8.30;1.88;;;13.20;99.90;;;;;;5020914;28;21049;-71
2023/03/11 05:15:22;;;;;;;9.10;1.80;;;13.20;99.90;;;;;;5021902;28;20540;-71
2023/03/11 05:17:48;;;;;;;4.65;1.65;;;13.30;99.90;;;;;;4985127;28;20878;-71
2023/03/11 05:20:15;;;;;;;6.55;1.80;;;13.20;99.90;;;;;;5019792;28;20411;-71
2023/03/11 05:22:42;;;;;;;7.68;1.67;;;13.10;99.90;;;;;;5005360;28;20431;-71
2023/03/11 05:25:09;;;;;;;7.38;1.75;;;13.10;99.90;;;;;;4987583;28;20411;-71
2023/03/11 05:27:35;;;;;;;6.88;2.08;;;13.10;99.90;;;;;;5002941;28;20439;-71
2023/03/11 05:30:02;;;;;;;10.32;2.13;;;13.30;99.90;;;;;;5021824;28;20415;-71
2023/03/11 05:32:28;;;;;;;10.23;1.90;;;13.40;99.90;;;;;;5018447;28;20577;-71
2023/03/11 05:34:54;;;;;;;7.32;1.80;;;13.40;99.90;;;;;;5004270;28;20450;-71
2023/03/11 05:37:21;;;;;;;6.00;1.73;;;13.60;99.90;;;;;;5018012;28;20525;-71
2023/03/11 05:39:50;;;;;;;8.93;2.10;;;13.70;99.90;;;;;;5020115;28;20771;-71
2023/03/11 05:42:16;;;;;;;14.03;2.10;;;13.90;99.90;;;;;;5020896;28;20975;-71
2023/03/11 05:44:42;;;;;;;10.13;1.95;;;13.90;99.90;;;;;;5021305;28;20419;-71
2023/03/11 05:47:08;;;;;;;11.63;2.10;;;13.90;99.90;;;;;;5018715;28;20510;-71
2023/03/11 05:49:35;;;;;;;7.88;1.80;;;14.10;99.90;;;;;;5001687;28;21151;-71
2023/03/11 05:52:01;;;;;;;9.00;2.13;;;14.50;99.90;;;;;;5017806;28;20414;-71
2023/03/11 05:54:27;;;;;;;9.93;1.97;;;14.70;99.90;;;;;;5019679;28;21235;-72
2023/03/11 05:56:54;;;;;;;6.97;2.00;;;14.70;99.90;;;;;;5001924;28;20414;-71
2023/03/11 05:59:22;;;;;;;14.50;2.30;;;14.80;99.90;;;;;;5000524;28;20454;-72
2023/03/11 06:01:48;;;;;;;8.33;1.90;;;14.90;99.90;;;;;;4985957;28;20407;-71
2023/03/11 06:04:14;;;;;;;7.63;1.92;;;14.90;99.90;;;;;;5019656;28;20511;-71
2023/03/11 06:06:41;;;;;;;7.18;1.90;;;14.90;99.90;;;;;;5020801;28;20453;-71
2023/03/11 06:09:13;;;;;;;10.03;1.90;;;15.00;99.90;;;;;;5020500;28;20457;-71
2023/03/11 06:11:39;;;;;;;12.77;2.30;;;15.10;99.90;;;;;;4984925;28;20485;-71
2023/03/11 06:14:05;;;;;;;9.25;1.90;;;15.10;99.90;;;;;;5001613;28;20422;-72
2023/03/11 06:16:32;;;;;;;8.25;1.80;;;15.10;99.90;;;;;;5020870;28;20419;-72
2023/03/11 06:19:01;;;;;;;6.82;1.90;;;15.10;99.90;;;;;;5017441;28;20498;-71
2023/03/11 06:21:27;;;;;;;8.23;1.90;;;15.20;99.90;;;;;;5018823;28;20426;-72
2023/03/11 06:23:53;;;;;;;9.32;2.00;;;15.10;99.90;;;;;;5001954;28;20500;-71
2023/03/11 06:26:22;;;;;;;8.98;1.95;;;15.10;99.90;;;;;;5003167;28;21031;-71
2023/03/11 06:28:51;;;;;;;9.50;1.98;;;15.10;99.90;;;;;;5000543;28;20425;-71
2023/03/11 06:31:25;;;;;;;6.90;1.63;;;15.30;99.90;;;;;;5001069;28;20488;-71
2023/03/11 06:33:54;;;;;;;7.82;2.15;;;15.60;99.90;;;;;;5020416;28;20414;-71
2023/03/11 06:36:22;;;;;;;10.27;2.30;;;15.70;99.90;;;;;;5018289;28;20868;-71
2023/03/11 06:38:51;;;;;;;13.38;2.30;;;15.60;99.90;;;;;;4999801;28;20505;-71
2023/03/11 06:41:17;;;;;;;9.57;1.90;;;15.70;99.90;;;;;;4985764;28;20417;-72
2023/03/11 06:43:43;;;;;;;8.00;2.00;;;15.80;99.90;;;;;;5003791;28;20419;-71
2023/03/11 06:46:14;;;;;;;8.15;1.90;;;15.80;99.90;;;;;;5024322;28;20410;-72
2023/03/11 06:48:40;;;;;;;9.00;2.17;;;15.70;99.90;;;;;;5023808;28;20978;-71
2023/03/11 06:51:07;;;;;;;9.17;2.10;;;15.70;99.90;;;;;;5024635;28;20419;-71
2023/03/11 06:53:33;;;;;;;9.25;2.10;;;15.90;99.90;;;;;;4986596;28;20401;-72
2023/03/11 06:56:13;;;;;;;10.65;2.35;;;16.10;99.90;;;;;;4991448;28;20429;-71
2023/03/11 06:58:41;;;;;;;11.23;2.47;;;16.20;99.90;;;;;;5005527;28;20510;-71
2023/03/11 07:01:17;;;;;;;9.60;2.20;;;16.30;99.90;;;;;;5022342;28;20457;-71
2023/03/11 07:03:46;;;;;;;12.07;2.22;;;16.50;99.90;;;;;;5023222;28;20423;-71
2023/03/11 07:06:21;;;;;;;7.75;2.13;;;16.50;99.90;;;;;;5005608;28;20465;-71
2023/03/11 07:08:49;;;;;;;11.38;1.92;;;16.20;99.90;;;;;;5022959;28;21160;-71
2023/03/11 07:11:21;;;;;;;7.03;2.00;;;15.80;99.90;;;;;;5023741;28;20779;-72
2023/03/11 07:13:48;;;;;;;9.03;1.97;;;15.30;99.90;;;;;;5003667;28;20417;-71
2023/03/11 07:16:24;;;;;;;10.48;2.25;;;15.20;99.90;;;;;;5023859;28;20414;-71
2023/03/11 07:18:53;;;;;;;29.60;2.47;;;15.20;99.90;;;;;;5022611;28;21862;-71
2023/03/11 07:21:23;;;;;;;12.65;2.13;;;15.70;99.90;;;;;;5021288;28;20805;-71
2023/03/11 07:23:54;;;;;;;9.73;2.00;;;15.90;99.90;;;;;;5004255;28;21195;-72
2023/03/11 07:26:21;;;;;;;10.52;2.22;;;15.50;99.90;;;;;;5009920;28;20411;-72
2023/03/11 07:28:48;;;;;;;7.82;1.90;;;15.50;99.90;;;;;;5001635;28;20474;-71
2023/03/11 07:31:34;;;;;;;10.77;2.13;;;15.50;99.90;;;;;;5023286;28;20415;-72
2023/03/11 07:34:04;;;;;;;9.52;2.15;;;15.70;99.90;;;;;;5007228;28;20454;-71
2023/03/11 07:36:31;;;;;;;8.55;2.08;;;15.70;99.90;;;;;;5025779;28;20411;-71
2023/03/11 07:39:03;;;;;;;12.47;2.33;;;15.70;99.90;;;;;;5006352;28;20445;-71
2023/03/11 07:41:33;;;;;;;8.93;2.15;;;15.80;99.90;;;;;;5023123;28;21059;-72
2023/03/11 07:44:01;;;;;;;9.90;2.40;;;15.80;99.90;;;;;;5004239;28;20415;-71
2023/03/11 07:46:29;;;;;;;10.00;2.35;;;15.70;99.90;;;;;;5009003;28;21624;-71
2023/03/11 07:48:56;;;;;;;8.23;2.03;;;15.80;99.90;;;;;;5001113;28;20460;-71
2023/03/11 07:51:30;;;;;;;9.98;2.35;;;15.90;99.90;;;;;;4984612;28;20482;-71
2023/03/11 07:53:59;;;;;;;10.57;2.20;;;16.10;99.90;;;;;;5012596;28;20469;-72
2023/03/11 07:56:29;;;;;;;9.87;2.50;;;16.00;99.90;;;;;;5002600;28;20417;-71
2023/03/11 07:59:01;;;;;;;9.07;1.98;;;16.00;99.90;;;;;;5019135;28;20416;-72
2023/03/11 08:01:35;;;;;;;12.85;2.20;;;16.00;99.90;;;;;;5000847;28;20418;-71
2023/03/11 08:04:05;;;;;;;9.38;2.10;;;16.20;99.90;;;;;;5017613;28;20430;-71
2023/03/11 08:06:33;;;;;;;15.00;2.28;;;16.50;99.90;;;;;;5000404;28;20985;-71
2023/03/11 08:09:03;;;;;;;10.82;2.50;;;16.60;99.90;;;;;;5017571;28;20422;-71
2023/03/11 08:11:31;;;;;;;10.13;2.23;;;16.70;99.90;;;;;;5002965;28;20434;-72
2023/03/11 08:13:58;;;;;;;11.70;2.17;;;16.70;99.90;;;;;;5005452;28;20407;-72
2023/03/11 08:16:25;;;;;;;9.27;2.20;;;16.80;99.90;;;;;;5003766;28;20920;-71
2023/03/11 08:18:52;;;;;;;10.68;1.98;;;17.00;99.90;;;;;;5018435;28;20789;-72
2023/03/11 08:21:25;;;;;;;13.35;2.60;;;16.90;99.90;;;;;;5002210;28;20415;-71
2023/03/11 08:23:56;;;;;;;15.25;2.50;;;17.00;99.90;;;;;;5004054;28;20445;-71
2023/03/11 08:26:23;;;;;;;18.17;2.50;;;17.30;99.90;;;;;;5024467;28;20407;-71
2023/03/11 08:28:49;;;;;;;10.95;2.50;;;17.50;99.90;;;;;;5004131;28;20427;-72
2023/03/11 08:31:26;;;;;;;11.45;2.33;;;17.60;99.90;;;;;;5004350;28;20847;-72
2023/03/11 08:34:06;;;;;;;11.00;2.43;;;17.50;99.90;;;;;;5022330;28;20415;-72
2023/03/11 08:36:33;;;;;;;11.48;2.15;;;17.40;99.90;;;;;;5023991;28;20429;-72
2023/03/11 08:38:59;;;;;;;7.60;2.10;;;17.30;99.90;;;;;;5005665;28;20786;-72
2023/03/11 08:41:26;;;;;;;9.82;2.20;;;17.30;99.90;;;;;;5023754;28;20873;-72
2023/03/11 08:43:53;;;;;;;10.93;2.45;;;17.50;99.90;;;;;;5006347;28;20629;-72
2023/03/11 08:46:38;;;;;;;10.48;2.13;;;17.80;99.90;;;;;;5003683;28;20654;-71
2023/03/11 08:49:06;;;;;;;10.15;2.42;;;17.90;99.90;;;;;;4998693;28;20415;-72
2023/03/11 08:51:34;;;;;;;13.02;2.40;;;17.90;99.90;;;;;;5018017;28;21072;-71
2023/03/11 08:54:01;;;;;;;12.68;2.40;;;17.80;99.90;;;;;;5020819;28;21037;-72
2023/03/11 08:56:28;;;;;;;10.43;2.22;;;17.70;99.90;;;;;;5020876;28;20410;-71
2023/03/11 08:58:55;;;;;;;11.35;2.90;;;17.80;99.90;;;;;;5003346;28;20403;-71
2023/03/11 09:01:22;;;;;;;9.07;2.42;;;17.80;99.90;;;;;;5002504;28;21269;-71
2023/03/11 09:03:49;;;;;;;19.15;2.72;;;17.80;99.90;;;;;;5017299;28;20501;-71
2023/03/11 09:06:17;;;;;;;12.07;2.73;;;18.00;99.90;;;;;;5021614;28;20555;-71
2023/03/11 09:08:46;;;;;;;13.65;2.33;;;18.00;99.90;;;;;;5020604;28;20454;-72
2023/03/11 09:11:15;;;;;;;15.00;2.70;;;17.80;99.90;;;;;;5020969;28;20937;-71
2023/03/11 09:13:43;;;;;;;11.95;2.28;;;17.70;99.90;;;;;;5020954;28;21225;-71
2023/03/11 09:16:22;;;;;;;16.27;2.65;;;17.80;99.90;;;;;;5002618;28;20786;-72
2023/03/11 09:18:48;;;;;;;11.10;2.20;;;17.60;99.90;;;;;;5004335;28;20411;-72
2023/03/11 09:21:17;;;;;;;12.38;2.28;;;17.70;99.90;;;;;;5019788;28;20430;-71
2023/03/11 09:23:43;;;;;;;15.20;2.75;;;17.90;99.90;;;;;;5022082;28;20439;-72
2023/03/11 09:26:10;;;;;;;12.05;2.55;;;18.00;99.90;;;;;;5021571;28;20419;-72
2023/03/11 09:28:36;;;;;;;12.80;2.75;;;18.00;99.90;;;;;;5001365;28;20494;-71
2023/03/11 09:31:03;;;;;;;10.40;2.30;;;18.00;99.90;;;;;;5003410;28;20415;-72
2023/03/11 09:33:29;;;;;;;11.55;2.10;;;18.00;99.90;;;;;;5003964;28;20493;-72
2023/03/11 09:35:57;;;;;;;13.25;2.55;;;18.20;99.90;;;;;;5019788;28;20771;-72
2023/03/11 09:38:24;;;;;;;12.00;2.80;;;18.20;99.90;;;;;;5020623;28;20411;-72
2023/03/11 09:41:32;;;;;;;12.77;2.40;;;18.70;99.90;;;;;;5003462;28;20985;-72
2023/03/11 09:44:10;;;;;;;8.63;2.40;;;19.10;99.90;;;;;;5019503;28;20476;-72
2023/03/11 09:47:25;;;;;;;11.73;2.55;;;19.60;99.90;;;;;;5003326;28;20411;-72
2023/03/11 09:50:18;;;;;;;13.02;2.50;;;19.80;99.90;;;;;;5017775;28;20426;-72
2023/03/11 09:53:39;;;;;;;9.57;2.70;;;19.70;99.90;;;;;;5019331;28;20466;-72
2023/03/11 09:56:15;;;;;;;16.23;2.95;;;19.70;99.90;;;;;;5000989;28;20434;-71
2023/03/11 09:58:51;;;;;;;12.27;2.50;;;19.60;99.90;;;;;;5017005;28;20419;-71
2023/03/11 10:01:32;;;;;;;11.05;2.72;;;19.70;99.90;;;;;;5001420;28;20418;-71
2023/03/11 10:04:25;;;;;;;11.20;2.67;;;19.80;99.90;;;;;;5010692;28;20421;-72
2023/03/11 10:06:52;;;;;;;11.07;2.58;;;19.80;99.90;;;;;;5015317;28;20897;-71
2023/03/11 10:09:55;;;;;;;10.88;2.60;;;19.80;99.90;;;;;;5016328;28;20419;-71
2023/03/11 10:12:58;;;;;;;10.60;2.30;;;20.10;99.90;;;;;;5018905;28;20423;-71
2023/03/11 10:15:58;;;;;;;14.15;2.63;;;20.30;99.90;;;;;;5015296;28;20481;-71
2023/03/11 10:18:57;;;;;;;15.55;2.72;;;20.30;99.90;;;;;;5010099;28;20407;-71
2023/03/11 10:21:39;;;;;;;12.33;2.60;;;20.40;99.90;;;;;;5019033;28;20410;-71
2023/03/11 10:24:39;;;;;;;12.90;2.90;;;20.40;99.90;;;;;;5019883;28;20452;-71
2023/03/11 10:27:21;;;;;;;20.00;3.10;;;20.50;99.90;;;;;;5013992;28;20425;-71
2023/03/11 10:30:16;;;;;;;16.02;3.35;;;20.60;99.60;;;;;;5016509;28;20419;-71
2023/03/11 10:33:35;;;;;;;13.88;2.85;;;20.60;99.90;;;;;;5017608;28;20429;-71
2023/03/11 10:36:11;;;;;;;13.60;2.70;;;21.00;99.90;;;;;;5014384;28;21142;-71
2023/03/11 10:38:45;;;;;;;13.93;2.60;;;21.20;99.90;;;;;;4996444;28;20526;-71
2023/03/11 10:41:43;;;;;;;10.48;2.75;;;21.30;99.90;;;;;;5019665;28;20457;-71
2023/03/11 10:44:17;;;;;;;16.95;3.15;;;21.30;99.90;;;;;;5017349;28;20419;-71
2023/03/11 10:46:44;;;;;;;10.45;2.40;;;22.40;98.50;;;;;;5014673;28;20414;-71
2023/03/11 10:49:16;;;;;;;12.00;2.72;;;22.10;99.10;;;;;;5013133;28;21187;-71
2023/03/11 10:51:51;;;;;;;15.43;3.05;;;21.80;99.50;;;;;;4994970;28;20982;-71
2023/03/11 10:54:59;;;;;;;12.15;3.00;;;21.40;99.70;;;;;;5016422;28;20454;-71
2023/03/11 10:57:37;;;;;;;15.73;2.72;;;21.20;99.90;;;;;;5015530;28;20429;-71
2023/03/11 11:00:16;;;;;;;12.38;2.70;;;20.90;99.80;;;;;;5016045;28;20447;-71
2023/03/11 11:02:58;;;;;;;9.48;2.90;;;20.80;99.60;;;;;;4999572;28;20496;-71
2023/03/11 11:05:34;;;;;;;11.23;2.40;;;20.90;99.60;;;;;;4999145;28;20419;-71
2023/03/11 11:08:18;;;;;;;15.52;3.17;;;20.60;99.90;;;;;;5013603;28;20426;-73
2023/03/11 11:10:52;;;;;;;11.10;2.90;;;20.80;99.90;;;;;;5018939;28;20414;-72
2023/03/11 11:13:26;;;;;;;14.55;3.25;;;20.70;99.50;;;;;;5018290;28;20411;-72
2023/03/11 11:16:05;;;;;;;12.90;3.40;;;20.50;99.90;;;;;;5014022;28;20418;-72
2023/03/11 11:18:54;;;;;;;11.68;3.00;;;20.50;99.90;;;;;;4997875;28;20419;-72
2023/03/11 11:21:45;;;;;;;12.43;3.23;;;20.00;99.70;;;;;;5017760;28;20451;-72
2023/03/11 11:24:30;;;;;;;11.70;2.72;;;19.80;99.90;;;;;;4999882;28;21045;-72
2023/03/11 11:27:20;;;;;;;16.80;2.90;;;20.00;99.90;;;;;;5013154;28;20419;-72
2023/03/11 11:30:03;;;;;;;15.75;2.97;;;20.50;99.90;;;;;;5017448;28;20557;-73
2023/03/11 11:32:32;;;;;;;11.30;2.72;;;21.10;99.90;;;;;;5022734;28;20933;-72
2023/03/11 11:35:15;;;;;;;11.07;3.00;;;21.20;99.90;;;;;;5008211;28;20399;-73
2023/03/11 11:37:47;;;;;;;13.57;3.00;;;21.20;99.90;;;;;;5019242;28;20422;-72
2023/03/11 11:40:23;;;;;;;12.88;2.83;;;21.00;99.90;;;;;;5020651;28;21249;-72
2023/03/11 11:42:56;;;;;;;10.75;2.60;;;20.80;99.90;;;;;;5020691;28;21161;-73
2023/03/11 11:45:53;;;;;;;10.70;2.72;;;21.00;99.90;;;;;;5022441;28;21579;-73
2023/03/11 11:49:04;;;;;;;11.23;3.07;;;21.00;99.90;;;;;;5018488;28;20421;-72
2023/03/11 11:51:52;;;;;;;16.17;3.28;;;20.80;99.90;;;;;;5006288;28;20429;-72
2023/03/11 11:54:46;;;;;;;17.95;3.25;;;21.20;99.90;;;;;;5025017;28;20415;-73
2023/03/11 11:57:15;;;;;;;13.90;3.13;;;21.10;99.90;;;;;;5019982;28;21200;-72
2023/03/11 11:59:43;;;;;;;10.00;2.67;;;21.00;99.90;;;;;;4989687;28;20411;-72
2023/03/11 12:02:40;;;;;;;14.27;2.90;;;20.90;99.90;;;;;;5023241;28;20437;-72
2023/03/11 12:05:29;;;;;;;12.27;2.90;;;20.80;99.90;;;;;;5022044;28;20417;-72
2023/03/11 12:08:30;;;;;;;10.55;3.00;;;20.50;99.90;;;;;;5017697;28;20417;-72
2023/03/11 12:11:08;;;;;;;11.73;2.80;;;20.60;99.90;;;;;;5021900;28;20423;-71
2023/03/11 12:14:15;;;;;;;14.25;3.03;;;21.00;99.90;;;;;;5015382;28;20510;-71
2023/03/11 12:16:58;;;;;;;15.93;3.10;;;21.00;99.90;;;;;;5021159;28;20403;-70
2023/03/11 12:19:43;;;;;;;13.18;3.05;;;20.90;99.90;;;;;;5018542;28;20411;-70
2023/03/11 12:23:14;;;;;;;12.10;3.27;;;20.70;99.90;;;;;;5016971;28;20427;-70
2023/03/11 12:26:12;;;;;;;13.48;3.28;;;20.50;99.90;;;;;;4939088;28;20431;-71
2023/03/11 12:28:41;;;;;;;12.95;3.15;;;20.40;99.90;;;;;;4999514;28;20407;-71
2023/03/11 12:31:11;;;;;;;15.02;3.30;;;20.30;99.90;;;;;;5016767;28;20417;-70
2023/03/11 12:33:58;;;;;;;12.00;2.90;;;20.20;99.90;;;;;;5020737;28;20414;-70
2023/03/11 12:36:32;;;;;;;13.63;3.22;;;20.20;99.90;;;;;;5002813;28;20415;-70
2023/03/11 12:39:07;;;;;;;10.70;2.78;;;19.80;99.90;;;;;;5018766;28;20425;-70
2023/03/11 12:41:40;;;;;;;12.73;2.90;;;19.60;99.90;;;;;;4986195;28;20497;-71
2023/03/11 12:44:28;;;;;;;13.15;2.83;;;19.60;99.90;;;;;;5001721;28;20414;-71
2023/03/11 12:46:57;;;;;;;17.02;3.03;;;19.90;99.90;;;;;;5014194;28;20506;-72
2023/03/11 12:49:35;;;;;;;13.35;3.25;;;19.90;99.90;;;;;;5002707;28;20498;-72
2023/03/11 12:52:12;;;;;;;11.85;3.08;;;19.90;99.90;;;;;;4985257;28;20465;-72
2023/03/11 12:55:10;;;;;;;15.27;2.90;;;19.90;99.90;;;;;;5002127;28;20878;-72
2023/03/11 12:57:52;;;;;;;14.68;2.95;;;19.90;99.90;;;;;;5017291;28;20409;-72
2023/03/11 13:00:53;;;;;;;11.32;2.50;;;19.80;99.90;;;;;;5000953;28;20426;-72
2023/03/11 13:04:00;;;;;;;13.73;3.30;;;19.70;99.90;;;;;;5019456;28;20414;-72
2023/03/11 13:06:55;;;;;;;14.50;3.00;;;19.40;99.90;;;;;;5017235;28;20422;-72
2023/03/11 13:09:22;;;;;;;12.05;2.83;;;19.60;99.90;;;;;;5003212;28;20430;-72
2023/03/11 13:11:50;;;;;;;22.55;3.28;;;19.60;99.90;;;;;;5000272;28;20724;-72